Warning: Javascript must be enabled to use all the features on this page!


Page Loading - Please Wait...

Click to hideNews Bulletins

Peak Streamflow for the Nation

USGS 08013000 Calcasieu River nr Glenmora, LA

Rapides Parish, Louisiana
Hydrologic Unit Code 08080203
Latitude  30°59'48", Longitude  92°40'25" NAD83
Drainage area 499.00  square miles
Gage datum 110.77 feet above NGVD29
Output formats
Table
Graph
Tab-separated file
peakfq (watstore) format
Reselect output format
Water
Year
Date Gage
Height
(feet)
Stream-
flow
(cfs)
1944 1944-05-05 16.50 19,000
1945 1945-04-04 18.00 27,400
1946 1946-01-09 16.20 17,300
1947 1947-01-19 16.68 20,100
1948 1948-02-13 14.00 5,100
1949 1949-03-29 15.80 15,000
1950 1950-02-14 18.82 31,800
1951 1951-01-05 16.69 20,100
1952 1952-04-25 19.02 33,000
1953 1953-05-19 21.55 59,900
1954 1954-05-04 14.88 10,100
1955 1955-08-05 16.93 20,600
1956 1956-02-09 14.26 6,440
1957 1956-12-26 14.29 6,580
1958 1958-09-23 15.98 15,700
1959 1959-02-05 14.87 10,300
1960 1960-02-27 13.57 3,840
1961 1961-01-10 16.64 19,000
1962 1961-12-18 15.52 13,000
1963 1963-01-03 12.86 2,440
1964 1964-03-05 15.64 13,800
1965 1965-03-01 14.34 6,830
1966 1966-02-12 20.29 47,100
1967 1967-04-16 17.29 22,800
1968 1968-01-11 14.54 7,840
1969 1969-05-10 14.91 9,780
1970 1970-01-06   2,0001,2
1971 1970-10-13 12.90 2,460
1972 1971-12-07 15.85 14,800
1973 1973-04-18 17.02 20,700
1974 1974-01-29   8,2002
1975 1975-05-06 17.32 22,500
1976 1976-05-13 14.98 9,270
1977 1977-03-06 14.75 8,160
1978 1978-01-27 14.86 8,690
1979 1979-02-26 14.96 9,170
1980 1980-04-14 16.22 15,900
1981 1981-06-08 15.47 9,370
1982 1982-04-27 13.73 3,240
1983 1982-12-28 20.40 46,900
1984 1984-02-14 17.18 19,400
1985 1984-10-23 16.92 20,000
1986 1985-10-31 17.81 25,600
1987 1986-11-27 16.77 19,100
1988 1987-11-18 16.23 15,900
1989 1989-06-29 20.46 47,300
1990 1990-01-21 17.12 19,600
1991 1991-05-09 15.58 10,100
1992 1991-12-13 15.98 12,300
1993 1993-04-11 15.15 8,200
1994 1994-01-29 18.48 24,900
1995 1995-03-08 18.19 27,400
1996 1995-12-22 14.56 6,000
1997 1997-02-28 16.09 12,900
1998 1998-01-10 16.75 16,700
1999 1999-04-07 17.24 19,800
2000 2000-04-10 13.49 2,830
2001 2001-06-10 16.99 15,600
2002 2001-11-30 17.77 16,800
2003 2002-11-07 18.44 23,800
2004 2004-05-15 18.70 22,600
2005 2004-11-26 17.88 17,100
2006 2006-05-02 13.97 3,480
2007 2006-10-20 17.52 16,100
2008 2008-02-25 15.76 7,830
2009 2009-04-22 15.06 7,600
2010 2009-11-02 16.59 11,100
2011 2011-03-10 13.30 2,380
2012 2012-03-23 19.09 29,700
2013 2013-01-12 16.43 10,400
2014 2014-04-03 13.50 2,580
2015 2015-06-01 13.722 3,550
2016 2016-03-12 20.46 44,900
2017 2017-04-04 20.22 41,900
2018 2018-03-31 18.77 27,000
2019 2019-01-05 17.15 14,700
2020 2020-03-24 15.29 6,870
2021 2020-10-13 18.13 21,000
?
  Peak Gage-Height Qualification Codes.
?
  Peak Streamflow Qualification Codes.